sensor_id;sensor_type;location;lat;lon;timestamp;pressure;altitude;pressure_sealevel;temperature;humidity
14594;BME280;7383;52.354;9.756;2022-08-01T00:00:11;-12816.03;;;20.87;100.00
14594;BME280;7383;52.354;9.756;2022-08-01T00:02:37;-12815.50;;;20.84;100.00
14594;BME280;7383;52.354;9.756;2022-08-01T00:05:05;-12815.94;;;20.87;100.00
14594;BME280;7383;52.354;9.756;2022-08-01T00:07:33;-12815.50;;;20.84;100.00
14594;BME280;7383;52.354;9.756;2022-08-01T00:09:59;-12815.59;;;20.85;100.00
14594;BME280;7383;52.354;9.756;2022-08-01T00:12:26;-12815.94;;;20.87;100.00
14594;BME280;7383;52.354;9.756;2022-08-01T00:14:52;-12816.38;;;20.89;100.00
14594;BME280;7383;52.354;9.756;2022-08-01T00:17:19;-12816.47;;;20.90;100.00
14594;BME280;7383;52.354;9.756;2022-08-01T00:19:45;-12816.38;;;20.89;100.00
14594;BME280;7383;52.354;9.756;2022-08-01T00:22:12;-12816.47;;;20.90;100.00
14594;BME280;7383;52.354;9.756;2022-08-01T00:24:39;-12816.19;;;20.88;100.00
14594;BME280;7383;52.354;9.756;2022-08-01T00:27:06;-12816.97;;;20.93;100.00
14594;BME280;7383;52.354;9.756;2022-08-01T00:29:32;-12816.53;;;20.90;100.00
14594;BME280;7383;52.354;9.756;2022-08-01T00:31:59;-12816.63;;;20.91;100.00
14594;BME280;7383;52.354;9.756;2022-08-01T00:34:25;-12817.22;;;20.94;100.00
14594;BME280;7383;52.354;9.756;2022-08-01T00:36:52;-12817.47;;;20.96;100.00
14594;BME280;7383;52.354;9.756;2022-08-01T00:39:18;-12817.66;;;20.97;100.00
14594;BME280;7383;52.354;9.756;2022-08-01T00:41:46;-12818.00;;;20.99;100.00
14594;BME280;7383;52.354;9.756;2022-08-01T00:44:12;-12817.56;;;20.96;100.00
14594;BME280;7383;52.354;9.756;2022-08-01T00:46:39;-12816.97;;;20.93;100.00
14594;BME280;7383;52.354;9.756;2022-08-01T00:49:05;-12817.75;;;20.97;100.00
14594;BME280;7383;52.354;9.756;2022-08-01T00:51:32;-12818.00;;;20.99;100.00
14594;BME280;7383;52.354;9.756;2022-08-01T00:53:59;-12817.56;;;20.96;100.00
14594;BME280;7383;52.354;9.756;2022-08-01T00:56:26;-12817.41;;;20.95;100.00
14594;BME280;7383;52.354;9.756;2022-08-01T00:58:55;-12816.88;;;20.92;100.00
14594;BME280;7383;52.354;9.756;2022-08-01T01:01:21;-12816.28;;;20.89;100.00
14594;BME280;7383;52.354;9.756;2022-08-01T01:03:48;-12816.28;;;20.89;100.00
14594;BME280;7383;52.354;9.756;2022-08-01T01:06:25;-12816.63;;;20.91;100.00
14594;BME280;7383;52.354;9.756;2022-08-01T01:08:58;-12816.38;;;20.89;100.00
14594;BME280;7383;52.354;9.756;2022-08-01T01:11:29;-12816.47;;;20.90;100.00
14594;BME280;7383;52.354;9.756;2022-08-01T01:14:04;-12816.38;;;20.89;100.00
14594;BME280;7383;52.354;9.756;2022-08-01T01:16:32;-12816.19;;;20.88;100.00
14594;BME280;7383;52.354;9.756;2022-08-01T01:19:01;-12816.47;;;20.90;100.00
14594;BME280;7383;52.354;9.756;2022-08-01T01:21:42;-12816.09;;;20.88;100.00
14594;BME280;7383;52.354;9.756;2022-08-01T01:24:21;-12816.38;;;20.89;100.00
14594;BME280;7383;52.354;9.756;2022-08-01T01:26:54;-12815.50;;;20.84;100.00
14594;BME280;7383;52.354;9.756;2022-08-01T01:29:26;-12816.09;;;20.88;100.00
14594;BME280;7383;52.354;9.756;2022-08-01T01:31:56;-12815.59;;;20.85;100.00
14594;BME280;7383;52.354;9.756;2022-08-01T01:34:23;-12815.44;;;20.84;100.00
14594;BME280;7383;52.354;9.756;2022-08-01T01:36:53;-12814.31;;;20.77;100.00
14594;BME280;7383;52.354;9.756;2022-08-01T01:39:20;-12813.72;;;20.74;100.00
14594;BME280;7383;52.354;9.756;2022-08-01T01:41:51;-12814.22;;;20.77;100.00
14594;BME280;7383;52.354;9.756;2022-08-01T01:44:19;-12813.63;;;20.73;100.00
14594;BME280;7383;52.354;9.756;2022-08-01T01:46:48;-12812.50;;;20.67;100.00
14594;BME280;7383;52.354;9.756;2022-08-01T01:49:19;-12812.50;;;20.67;100.00
14594;BME280;7383;52.354;9.756;2022-08-01T01:51:46;-12812.50;;;20.67;100.00
14594;BME280;7383;52.354;9.756;2022-08-01T01:54:13;-12812.34;;;20.66;100.00
14594;BME280;7383;52.354;9.756;2022-08-01T01:56:43;-12812.06;;;20.64;100.00
14594;BME280;7383;52.354;9.756;2022-08-01T01:59:16;-12812.84;;;20.69;100.00
14594;BME280;7383;52.354;9.756;2022-08-01T02:01:48;-12812.00;;;20.63;100.00
14594;BME280;7383;52.354;9.756;2022-08-01T02:04:16;-12811.66;;;20.61;100.00
14594;BME280;7383;52.354;9.756;2022-08-01T02:06:45;-12812.06;;;20.64;100.00
14594;BME280;7383;52.354;9.756;2022-08-01T02:09:16;-12811.56;;;20.61;100.00
14594;BME280;7383;52.354;9.756;2022-08-01T02:11:44;-12810.69;;;20.56;100.00
14594;BME280;7383;52.354;9.756;2022-08-01T02:14:12;-12810.53;;;20.55;100.00
14594;BME280;7383;52.354;9.756;2022-08-01T02:16:42;-12809.69;;;20.50;100.00
14594;BME280;7383;52.354;9.756;2022-08-01T02:19:10;-12809.41;;;20.48;100.00
14594;BME280;7383;52.354;9.756;2022-08-01T02:21:40;-12809.06;;;20.46;100.00
14594;BME280;7383;52.354;9.756;2022-08-01T02:24:12;-12808.38;;;20.42;100.00
14594;BME280;7383;52.354;9.756;2022-08-01T02:26:43;-12808.38;;;20.42;100.00
14594;BME280;7383;52.354;9.756;2022-08-01T02:29:15;-12808.31;;;20.42;100.00
14594;BME280;7383;52.354;9.756;2022-08-01T02:31:44;-12808.31;;;20.42;100.00
14594;BME280;7383;52.354;9.756;2022-08-01T02:34:17;-12807.69;;;20.38;100.00
14594;BME280;7383;52.354;9.756;2022-08-01T02:36:46;-12807.78;;;20.39;100.00
14594;BME280;7383;52.354;9.756;2022-08-01T02:39:16;-12807.78;;;20.39;100.00
14594;BME280;7383;52.354;9.756;2022-08-01T02:41:47;-12807.44;;;20.37;100.00
14594;BME280;7383;52.354;9.756;2022-08-01T02:44:17;-12807.53;;;20.37;100.00
14594;BME280;7383;52.354;9.756;2022-08-01T02:46:51;-12807.00;;;20.34;100.00
14594;BME280;7383;52.354;9.756;2022-08-01T02:49:20;-12806.59;;;20.32;100.00
14594;BME280;7383;52.354;9.756;2022-08-01T02:51:48;-12806.50;;;20.31;100.00
14594;BME280;7383;52.354;9.756;2022-08-01T02:54:17;-12805.72;;;20.27;100.00
14594;BME280;7383;52.354;9.756;2022-08-01T02:56:46;-12805.53;;;20.26;100.00
14594;BME280;7383;52.354;9.756;2022-08-01T02:59:15;-12805.72;;;20.27;100.00
14594;BME280;7383;52.354;9.756;2022-08-01T03:01:44;-12805.63;;;20.26;100.00
14594;BME280;7383;52.354;9.756;2022-08-01T03:04:11;-12805.72;;;20.27;100.00
14594;BME280;7383;52.354;9.756;2022-08-01T03:06:40;-12805.72;;;20.27;100.00
14594;BME280;7383;52.354;9.756;2022-08-01T03:09:08;-12805.13;;;20.23;100.00
14594;BME280;7383;52.354;9.756;2022-08-01T03:11:36;-12806.22;;;20.30;100.00
14594;BME280;7383;52.354;9.756;2022-08-01T03:14:07;-12805.38;;;20.25;100.00
14594;BME280;7383;52.354;9.756;2022-08-01T03:16:36;-12805.97;;;20.28;100.00
14594;BME280;7383;52.354;9.756;2022-08-01T03:19:04;-12805.97;;;20.28;100.00
14594;BME280;7383;52.354;9.756;2022-08-01T03:21:31;-12805.19;;;20.24;100.00
14594;BME280;7383;52.354;9.756;2022-08-01T03:24:01;-12804.69;;;20.21;100.00
14594;BME280;7383;52.354;9.756;2022-08-01T03:26:32;-12804.16;;;20.18;100.00
14594;BME280;7383;52.354;9.756;2022-08-01T03:29:04;-12804.09;;;20.17;100.00
14594;BME280;7383;52.354;9.756;2022-08-01T03:31:31;-12803.91;;;20.16;100.00
14594;BME280;7383;52.354;9.756;2022-08-01T03:34:00;-12803.66;;;20.14;100.00
14594;BME280;7383;52.354;9.756;2022-08-01T03:36:28;-12803.13;;;20.11;100.00
14594;BME280;7383;52.354;9.756;2022-08-01T03:38:58;-12802.63;;;20.08;100.00
14594;BME280;7383;52.354;9.756;2022-08-01T03:41:30;-12802.88;;;20.10;100.00
14594;BME280;7383;52.354;9.756;2022-08-01T03:44:01;-12800.91;;;19.98;100.00
14594;BME280;7383;52.354;9.756;2022-08-01T03:46:31;-12800.22;;;19.94;100.00
14594;BME280;7383;52.354;9.756;2022-08-01T03:49:03;-12800.47;;;19.96;100.00
14594;BME280;7383;52.354;9.756;2022-08-01T03:51:32;-12799.69;;;19.91;100.00
14594;BME280;7383;52.354;9.756;2022-08-01T03:54:00;-12798.94;;;19.87;100.00
14594;BME280;7383;52.354;9.756;2022-08-01T03:56:29;-12799.63;;;19.91;100.00
14594;BME280;7383;52.354;9.756;2022-08-01T03:58:57;-12799.19;;;19.88;100.00
14594;BME280;7383;52.354;9.756;2022-08-01T04:01:24;-12799.28;;;19.89;100.00
14594;BME280;7383;52.354;9.756;2022-08-01T04:03:52;-12799.28;;;19.89;100.00
14594;BME280;7383;52.354;9.756;2022-08-01T04:06:19;-12799.78;;;19.92;100.00
14594;BME280;7383;52.354;9.756;2022-08-01T04:08:45;-12799.53;;;19.90;100.00
14594;BME280;7383;52.354;9.756;2022-08-01T04:11:20;-12799.97;;;19.93;100.00
14594;BME280;7383;52.354;9.756;2022-08-01T04:13:48;-12799.69;;;19.91;100.00
14594;BME280;7383;52.354;9.756;2022-08-01T04:16:15;-12800.03;;;19.93;100.00
14594;BME280;7383;52.354;9.756;2022-08-01T04:18:41;-12800.22;;;19.94;100.00
14594;BME280;7383;52.354;9.756;2022-08-01T04:21:07;-12800.38;;;19.95;100.00
14594;BME280;7383;52.354;9.756;2022-08-01T04:23:35;-12800.31;;;19.95;100.00
14594;BME280;7383;52.354;9.756;2022-08-01T04:26:02;-12800.72;;;19.97;100.00
14594;BME280;7383;52.354;9.756;2022-08-01T04:28:32;-12800.91;;;19.98;100.00
14594;BME280;7383;52.354;9.756;2022-08-01T04:31:02;-12800.47;;;19.96;100.00
14594;BME280;7383;52.354;9.756;2022-08-01T04:33:33;-12801.00;;;19.99;100.00
14594;BME280;7383;52.354;9.756;2022-08-01T04:36:02;-12801.34;;;20.01;100.00
14594;BME280;7383;52.354;9.756;2022-08-01T04:38:31;-12801.25;;;20.00;100.00
14594;BME280;7383;52.354;9.756;2022-08-01T04:40:58;-12801.41;;;20.01;100.00
14594;BME280;7383;52.354;9.756;2022-08-01T04:43:26;-12800.91;;;19.98;100.00
14594;BME280;7383;52.354;9.756;2022-08-01T04:45:54;-12800.31;;;19.95;100.00
14594;BME280;7383;52.354;9.756;2022-08-01T04:48:23;-12799.97;;;19.93;100.00
14594;BME280;7383;52.354;9.756;2022-08-01T04:50:50;-12800.03;;;19.93;100.00
14594;BME280;7383;52.354;9.756;2022-08-01T04:53:18;-12800.03;;;19.93;100.00
14594;BME280;7383;52.354;9.756;2022-08-01T04:55:47;-12799.97;;;19.93;100.00
14594;BME280;7383;52.354;9.756;2022-08-01T04:58:14;-12799.78;;;19.92;100.00
14594;BME280;7383;52.354;9.756;2022-08-01T05:00:41;-12800.31;;;19.95;100.00
14594;BME280;7383;52.354;9.756;2022-08-01T05:03:08;-12800.22;;;19.94;100.00
14594;BME280;7383;52.354;9.756;2022-08-01T05:05:35;-12800.03;;;19.93;100.00
14594;BME280;7383;52.354;9.756;2022-08-01T05:08:02;-12800.47;;;19.96;100.00
14594;BME280;7383;52.354;9.756;2022-08-01T05:10:28;-12801.84;;;20.04;100.00
14594;BME280;7383;52.354;9.756;2022-08-01T05:12:55;-12802.09;;;20.05;100.00
14594;BME280;7383;52.354;9.756;2022-08-01T05:15:22;-12803.13;;;20.11;100.00
14594;BME280;7383;52.354;9.756;2022-08-01T05:17:48;-12803.66;;;20.14;100.00
14594;BME280;7383;52.354;9.756;2022-08-01T05:20:15;-12803.22;;;20.12;100.00
14594;BME280;7383;52.354;9.756;2022-08-01T05:22:43;-12803.13;;;20.11;100.00
14594;BME280;7383;52.354;9.756;2022-08-01T05:25:10;-12803.41;;;20.13;100.00
14594;BME280;7383;52.354;9.756;2022-08-01T05:27:36;-12804.16;;;20.18;100.00
14594;BME280;7383;52.354;9.756;2022-08-01T05:30:07;-12805.97;;;20.28;100.00
14594;BME280;7383;52.354;9.756;2022-08-01T05:32:34;-12806.50;;;20.31;100.00
14594;BME280;7383;52.354;9.756;2022-08-01T05:35:00;-12806.31;;;20.30;100.00
14594;BME280;7383;52.354;9.756;2022-08-01T05:37:27;-12806.66;;;20.32;100.00
14594;BME280;7383;52.354;9.756;2022-08-01T05:39:55;-12807.34;;;20.36;100.00
14594;BME280;7383;52.354;9.756;2022-08-01T05:42:21;-12807.44;;;20.37;100.00
14594;BME280;7383;52.354;9.756;2022-08-01T05:44:48;-12807.09;;;20.35;100.00
14594;BME280;7383;52.354;9.756;2022-08-01T05:47:15;-12807.34;;;20.36;100.00
14594;BME280;7383;52.354;9.756;2022-08-01T05:49:42;-12806.41;;;20.31;100.00
14594;BME280;7383;52.354;9.756;2022-08-01T05:52:09;-12806.41;;;20.31;100.00
14594;BME280;7383;52.354;9.756;2022-08-01T05:54:35;-12805.81;;;20.27;100.00
14594;BME280;7383;52.354;9.756;2022-08-01T05:57:03;-12806.75;;;20.33;100.00
14594;BME280;7383;52.354;9.756;2022-08-01T05:59:30;-12807.69;;;20.38;100.00
14594;BME280;7383;52.354;9.756;2022-08-01T06:01:56;-12808.38;;;20.42;100.00
14594;BME280;7383;52.354;9.756;2022-08-01T06:04:23;-12809.25;;;20.47;100.00
14594;BME280;7383;52.354;9.756;2022-08-01T06:06:50;-12810.09;;;20.52;100.00
14594;BME280;7383;52.354;9.756;2022-08-01T06:09:16;-12809.94;;;20.51;100.00
14594;BME280;7383;52.354;9.756;2022-08-01T06:11:43;-12810.78;;;20.56;100.00
14594;BME280;7383;52.354;9.756;2022-08-01T06:14:10;-12811.66;;;20.61;100.00
14594;BME280;7383;52.354;9.756;2022-08-01T06:16:37;-12812.25;;;20.65;100.00
14594;BME280;7383;52.354;9.756;2022-08-01T06:19:03;-12811.66;;;20.61;100.00
14594;BME280;7383;52.354;9.756;2022-08-01T06:21:30;-12811.38;;;20.60;100.00
14594;BME280;7383;52.354;9.756;2022-08-01T06:23:56;-12812.06;;;20.64;100.00
14594;BME280;7383;52.354;9.756;2022-08-01T06:26:22;-12811.38;;;20.60;100.00
14594;BME280;7383;52.354;9.756;2022-08-01T06:28:50;-12812.69;;;20.68;100.00
14594;BME280;7383;52.354;9.756;2022-08-01T06:31:17;-12813.03;;;20.70;100.00
14594;BME280;7383;52.354;9.756;2022-08-01T06:33:44;-12813.88;;;20.75;100.00
14594;BME280;7383;52.354;9.756;2022-08-01T06:36:10;-12813.78;;;20.74;100.00
14594;BME280;7383;52.354;9.756;2022-08-01T06:38:38;-12813.78;;;20.74;100.00
14594;BME280;7383;52.354;9.756;2022-08-01T06:41:04;-12813.72;;;20.74;100.00
14594;BME280;7383;52.354;9.756;2022-08-01T06:43:31;-12813.28;;;20.71;100.00
14594;BME280;7383;52.354;9.756;2022-08-01T06:45:57;-12812.59;;;20.67;100.00
14594;BME280;7383;52.354;9.756;2022-08-01T06:48:25;-12811.91;;;20.63;100.00
14594;BME280;7383;52.354;9.756;2022-08-01T06:50:51;-12813.63;;;20.73;100.00
14594;BME280;7383;52.354;9.756;2022-08-01T06:53:33;-12813.44;;;20.72;100.00
14594;BME280;7383;52.354;9.756;2022-08-01T06:55:59;-12814.22;;;20.77;100.00
14594;BME280;7383;52.354;9.756;2022-08-01T06:58:26;-12816.28;;;20.89;100.00
14594;BME280;7383;52.354;9.756;2022-08-01T07:00:52;-12817.22;;;20.94;100.00
14594;BME280;7383;52.354;9.756;2022-08-01T07:03:19;-12819.03;;;21.05;100.00
14594;BME280;7383;52.354;9.756;2022-08-01T07:05:47;-12819.63;;;21.08;100.00
14594;BME280;7383;52.354;9.756;2022-08-01T07:08:13;-12819.63;;;21.08;100.00
14594;BME280;7383;52.354;9.756;2022-08-01T07:10:40;-12819.03;;;21.05;100.00
14594;BME280;7383;52.354;9.756;2022-08-01T07:13:06;-12819.38;;;21.07;100.00
14594;BME280;7383;52.354;9.756;2022-08-01T07:15:32;-12821.00;;;21.17;100.00
14594;BME280;7383;52.354;9.756;2022-08-01T07:17:59;-12823.25;;;21.30;100.00
14594;BME280;7383;52.354;9.756;2022-08-01T07:20:29;-12823.25;;;21.30;100.00
14594;BME280;7383;52.354;9.756;2022-08-01T07:22:57;-12822.22;;;21.24;100.00
14594;BME280;7383;52.354;9.756;2022-08-01T07:25:23;-12822.28;;;21.24;100.00
14594;BME280;7383;52.354;9.756;2022-08-01T07:27:49;-12822.38;;;21.25;100.00
14594;BME280;7383;52.354;9.756;2022-08-01T07:30:16;-12822.72;;;21.27;100.00
14594;BME280;7383;52.354;9.756;2022-08-01T07:32:42;-12823.25;;;21.30;100.00
14594;BME280;7383;52.354;9.756;2022-08-01T07:35:09;-12825.38;;;21.42;100.00
14594;BME280;7383;52.354;9.756;2022-08-01T07:37:35;-12826.50;;;21.49;100.00
14594;BME280;7383;52.354;9.756;2022-08-01T07:40:04;-12827.59;;;21.55;100.00
14594;BME280;7383;52.354;9.756;2022-08-01T07:42:31;-12828.38;;;21.60;100.00
14594;BME280;7383;52.354;9.756;2022-08-01T07:44:57;-12827.44;;;21.54;100.00
14594;BME280;7383;52.354;9.756;2022-08-01T07:47:24;-12827.00;;;21.52;100.00
14594;BME280;7383;52.354;9.756;2022-08-01T07:49:51;-12825.38;;;21.42;100.00
14594;BME280;7383;52.354;9.756;2022-08-01T07:52:17;-12826.06;;;21.46;100.00
14594;BME280;7383;52.354;9.756;2022-08-01T07:54:44;-12827.44;;;21.54;100.00
14594;BME280;7383;52.354;9.756;2022-08-01T07:57:11;-12827.94;;;21.57;100.00
14594;BME280;7383;52.354;9.756;2022-08-01T07:59:38;-12830.69;;;21.74;100.00
14594;BME280;7383;52.354;9.756;2022-08-01T08:02:05;-12831.81;;;21.80;100.00
14594;BME280;7383;52.354;9.756;2022-08-01T08:04:31;-12832.41;;;21.84;100.00
14594;BME280;7383;52.354;9.756;2022-08-01T08:06:58;-12830.78;;;21.74;100.00
14594;BME280;7383;52.354;9.756;2022-08-01T08:09:24;-12828.72;;;21.62;100.00
14594;BME280;7383;52.354;9.756;2022-08-01T08:11:51;-12826.75;;;21.50;100.00
14594;BME280;7383;52.354;9.756;2022-08-01T08:14:19;-12825.81;;;21.45;100.00
14594;BME280;7383;52.354;9.756;2022-08-01T08:16:47;-12824.25;;;21.36;100.00
14594;BME280;7383;52.354;9.756;2022-08-01T08:19:14;-12821.78;;;21.21;100.00
14594;BME280;7383;52.354;9.756;2022-08-01T08:21:40;-12822.28;;;21.24;100.00
14594;BME280;7383;52.354;9.756;2022-08-01T08:24:08;-12820.50;;;21.14;100.00
14594;BME280;7383;52.354;9.756;2022-08-01T08:26:47;-12821.78;;;21.21;100.00
14594;BME280;7383;52.354;9.756;2022-08-01T08:29:13;-12822.72;;;21.27;100.00
14594;BME280;7383;52.354;9.756;2022-08-01T08:31:41;-12823.56;;;21.32;100.00
14594;BME280;7383;52.354;9.756;2022-08-01T08:34:08;-12825.81;;;21.45;100.00
14594;BME280;7383;52.354;9.756;2022-08-01T08:36:34;-12829.06;;;21.64;100.00
14594;BME280;7383;52.354;9.756;2022-08-01T08:39:01;-12830.34;;;21.72;100.00
14594;BME280;7383;52.354;9.756;2022-08-01T08:41:29;-12833.88;;;21.92;100.00
14594;BME280;7383;52.354;9.756;2022-08-01T08:43:55;-12837.91;;;22.16;100.00
14594;BME280;7383;52.354;9.756;2022-08-01T08:46:25;-12839.69;;;22.27;100.00
14594;BME280;7383;52.354;9.756;2022-08-01T08:48:54;-12841.41;;;22.37;100.00
14594;BME280;7383;52.354;9.756;2022-08-01T08:51:23;-12841.06;;;22.35;100.00
14594;BME280;7383;52.354;9.756;2022-08-01T08:53:53;-12840.03;;;22.29;100.00
14594;BME280;7383;52.354;9.756;2022-08-01T08:56:24;-12841.16;;;22.35;100.00
14594;BME280;7383;52.354;9.756;2022-08-01T08:58:59;-12839.44;;;22.25;100.00
14594;BME280;7383;52.354;9.756;2022-08-01T09:01:26;-12841.06;;;22.35;100.00
14594;BME280;7383;52.354;9.756;2022-08-01T09:03:54;-12839.59;;;22.26;100.00
14594;BME280;7383;52.354;9.756;2022-08-01T09:06:21;-12839.94;;;22.28;100.00
14594;BME280;7383;52.354;9.756;2022-08-01T09:08:47;-12839.25;;;22.24;100.00
14594;BME280;7383;52.354;9.756;2022-08-01T09:11:14;-12839.94;;;22.28;100.00
14594;BME280;7383;52.354;9.756;2022-08-01T09:13:40;-12840.28;;;22.30;100.00
14594;BME280;7383;52.354;9.756;2022-08-01T09:16:07;-12841.06;;;22.35;100.00
14594;BME280;7383;52.354;9.756;2022-08-01T09:18:34;-12843.19;;;22.47;100.00
14594;BME280;7383;52.354;9.756;2022-08-01T09:21:10;-12845.00;;;22.58;100.00
14594;BME280;7383;52.354;9.756;2022-08-01T09:23:38;-12846.03;;;22.64;100.00
14594;BME280;7383;52.354;9.756;2022-08-01T09:26:08;-12846.03;;;22.64;100.00
14594;BME280;7383;52.354;9.756;2022-08-01T09:28:35;-12845.09;;;22.58;100.00
14594;BME280;7383;52.354;9.756;2022-08-01T09:31:06;-12846.03;;;22.64;100.00
14594;BME280;7383;52.354;9.756;2022-08-01T09:33:47;-12846.97;;;22.70;100.00
14594;BME280;7383;52.354;9.756;2022-08-01T09:36:15;-12846.88;;;22.69;100.00
14594;BME280;7383;52.354;9.756;2022-08-01T09:38:42;-12846.44;;;22.67;100.00
14594;BME280;7383;52.354;9.756;2022-08-01T09:41:09;-12845.75;;;22.63;100.00
14594;BME280;7383;52.354;9.756;2022-08-01T09:43:36;-12844.91;;;22.57;100.00
14594;BME280;7383;52.354;9.756;2022-08-01T09:46:05;-12843.72;;;22.50;100.00
14594;BME280;7383;52.354;9.756;2022-08-01T09:48:34;-12840.19;;;22.30;100.00
14594;BME280;7383;52.354;9.756;2022-08-01T09:51:02;-12837.28;;;22.13;100.00
14594;BME280;7383;52.354;9.756;2022-08-01T09:53:41;-12836.09;;;22.05;100.00
14594;BME280;7383;52.354;9.756;2022-08-01T09:56:09;-12835.16;;;22.00;100.00
14594;BME280;7383;52.354;9.756;2022-08-01T09:58:49;-12836.44;;;22.07;100.00
14594;BME280;7383;52.354;9.756;2022-08-01T10:01:16;-12838.91;;;22.22;100.00
14594;BME280;7383;52.354;9.756;2022-08-01T10:03:42;-12841.81;;;22.39;100.00
14594;BME280;7383;52.354;9.756;2022-08-01T10:06:19;-12843.88;;;22.51;100.00
14594;BME280;7383;52.354;9.756;2022-08-01T10:08:48;-12844.22;;;22.53;100.00
14594;BME280;7383;52.354;9.756;2022-08-01T10:11:14;-12841.81;;;22.39;100.00
14594;BME280;7383;52.354;9.756;2022-08-01T10:13:40;-12843.38;;;22.48;100.00
14594;BME280;7383;52.354;9.756;2022-08-01T10:16:07;-12843.28;;;22.48;100.00
14594;BME280;7383;52.354;9.756;2022-08-01T10:18:35;-12844.75;;;22.56;100.00
14594;BME280;7383;52.354;9.756;2022-08-01T10:21:03;-12847.22;;;22.71;100.00
14594;BME280;7383;52.354;9.756;2022-08-01T10:23:33;-12848.50;;;22.79;100.00
14594;BME280;7383;52.354;9.756;2022-08-01T10:26:02;-12851.41;;;22.96;100.00
14594;BME280;7383;52.354;9.756;2022-08-01T10:28:31;-12852.34;;;23.01;100.00
14594;BME280;7383;52.354;9.756;2022-08-01T10:31:00;-12852.53;;;23.02;100.00
14594;BME280;7383;52.354;9.756;2022-08-01T10:33:28;-12853.22;;;23.07;100.00
14594;BME280;7383;52.354;9.756;2022-08-01T10:35:56;-12854.56;;;23.15;100.00
14594;BME280;7383;52.354;9.756;2022-08-01T10:38:23;-12854.84;;;23.16;100.00
14594;BME280;7383;52.354;9.756;2022-08-01T10:40:50;-12855.69;;;23.21;100.00
14594;BME280;7383;52.354;9.756;2022-08-01T10:43:18;-12856.72;;;23.27;100.00
14594;BME280;7383;52.354;9.756;2022-08-01T10:45:44;-12857.81;;;23.34;100.00
14594;BME280;7383;52.354;9.756;2022-08-01T10:48:14;-12856.88;;;23.28;100.00
14594;BME280;7383;52.354;9.756;2022-08-01T10:50:46;-12857.31;;;23.31;100.00
14594;BME280;7383;52.354;9.756;2022-08-01T10:53:15;-12857.41;;;23.31;100.00
14594;BME280;7383;52.354;9.756;2022-08-01T10:55:47;-12858.00;;;23.35;100.00
14594;BME280;7383;52.354;9.756;2022-08-01T10:58:21;-12861.75;;;23.57;100.00
14594;BME280;7383;52.354;9.756;2022-08-01T11:00:48;-12865.25;;;23.78;100.00
14594;BME280;7383;52.354;9.756;2022-08-01T11:03:32;-12870.03;;;24.06;100.00
14594;BME280;7383;52.354;9.756;2022-08-01T11:06:01;-12870.28;;;24.08;100.00
14594;BME280;7383;52.354;9.756;2022-08-01T11:08:30;-12868.75;;;23.98;100.00
14594;BME280;7383;52.354;9.756;2022-08-01T11:11:00;-12863.88;;;23.70;100.00
14594;BME280;7383;52.354;9.756;2022-08-01T11:14:01;-12862.44;;;23.61;100.00
14594;BME280;7383;52.354;9.756;2022-08-01T11:16:33;-12862.59;;;23.62;100.00
14594;BME280;7383;52.354;9.756;2022-08-01T11:19:00;-12865.00;;;23.76;100.00
14594;BME280;7383;52.354;9.756;2022-08-01T11:22:00;-12865.00;;;23.76;100.00
14594;BME280;7383;52.354;9.756;2022-08-01T11:24:56;-12868.50;;;23.97;100.00
14594;BME280;7383;52.354;9.756;2022-08-01T11:27:25;-12868.84;;;23.99;100.00
14594;BME280;7383;52.354;9.756;2022-08-01T11:30:24;-12870.38;;;24.08;100.00
14594;BME280;7383;52.354;9.756;2022-08-01T11:32:53;-12874.31;;;24.31;100.00
14594;BME280;7383;52.354;9.756;2022-08-01T11:35:21;-12876.59;;;24.45;100.00
14594;BME280;7383;52.354;9.756;2022-08-01T11:37:49;-12880.09;;;24.66;100.00
14594;BME280;7383;52.354;9.756;2022-08-01T11:40:18;-12882.06;;;24.77;100.00
14594;BME280;7383;52.354;9.756;2022-08-01T11:42:45;-12883.16;;;24.84;100.00
14594;BME280;7383;52.354;9.756;2022-08-01T11:45:12;-12882.16;;;24.78;100.00
14594;BME280;7383;52.354;9.756;2022-08-01T11:47:47;-12883.44;;;24.85;100.00
14594;BME280;7383;52.354;9.756;2022-08-01T11:50:30;-12882.41;;;24.79;100.00
14594;BME280;7383;52.354;9.756;2022-08-01T11:52:57;-12878.13;;;24.54;100.00
14594;BME280;7383;52.354;9.756;2022-08-01T11:55:26;-12875.16;;;24.36;100.00
14594;BME280;7383;52.354;9.756;2022-08-01T11:57:59;-12872.16;;;24.19;100.00
14594;BME280;7383;52.354;9.756;2022-08-01T12:00:25;-12872.84;;;24.23;100.00
14594;BME280;7383;52.354;9.756;2022-08-01T12:02:58;-12875.06;;;24.36;100.00
14594;BME280;7383;52.354;9.756;2022-08-01T12:05:25;-12876.53;;;24.44;100.00
14594;BME280;7383;52.354;9.756;2022-08-01T12:07:54;-12879.75;;;24.64;100.00
14594;BME280;7383;52.354;9.756;2022-08-01T12:10:22;-12883.16;;;24.84;100.00
14594;BME280;7383;52.354;9.756;2022-08-01T12:12:51;-12886.50;;;25.04;100.00
14594;BME280;7383;52.354;9.756;2022-08-01T12:15:19;-12886.31;;;25.03;100.00
14594;BME280;7383;52.354;9.756;2022-08-01T12:17:47;-12886.50;;;25.04;100.00
14594;BME280;7383;52.354;9.756;2022-08-01T12:20:19;-12884.28;;;24.90;100.00
14594;BME280;7383;52.354;9.756;2022-08-01T12:22:46;-12888.03;;;25.13;100.00
14594;BME280;7383;52.354;9.756;2022-08-01T12:25:15;-12891.59;;;25.34;100.00
14594;BME280;7383;52.354;9.756;2022-08-01T12:27:43;-12893.91;;;25.47;100.00
14594;BME280;7383;52.354;9.756;2022-08-01T12:30:12;-12897.22;;;25.67;100.00
14594;BME280;7383;52.354;9.756;2022-08-01T12:32:41;-12896.03;;;25.60;100.00
14594;BME280;7383;52.354;9.756;2022-08-01T12:35:08;-12898.56;;;25.75;100.00
14594;BME280;7383;52.354;9.756;2022-08-01T12:37:38;-12900.44;;;25.86;100.00
14594;BME280;7383;52.354;9.756;2022-08-01T12:40:13;-12899.69;;;25.82;100.00
14594;BME280;7383;52.354;9.756;2022-08-01T12:42:40;-12900.09;;;25.84;100.00
14594;BME280;7383;52.354;9.756;2022-08-01T12:45:09;-12905.97;;;26.19;100.00
14594;BME280;7383;52.354;9.756;2022-08-01T12:47:36;-12910.22;;;26.44;100.00
14594;BME280;7383;52.354;9.756;2022-08-01T12:50:07;-12909.97;;;26.43;100.00
14594;BME280;7383;52.354;9.756;2022-08-01T12:52:34;-12911.75;;;26.54;100.00
14594;BME280;7383;52.354;9.756;2022-08-01T12:55:04;-12912.34;;;26.57;100.00
14594;BME280;7383;52.354;9.756;2022-08-01T12:57:32;-12915.66;;;26.77;100.00